Time;durP1;ratioP1;P1;durP2;ratioP2;P2;SDS_P1;SDS_P2;PMS_P1;PMS_P2;Temp;Humidity;BMP_temperature;BMP_pressure;BME280_temperature;BME280_humidity;BME280_pressure;Samples;Min_cycle;Max_cycle;Signal;HPM_P1;HPM_P2
2023/09/09 00:00:07;;;;;;;2.85;2.00;;;;;;;16.60;69.73;93950.94;520784;28;880;-51
2023/09/09 00:00:22;;;;;;;2.00;1.80;;;;;;;16.62;69.70;93953.91;519993;28;864;-50
2023/09/09 00:00:39;;;;;;;2.07;1.90;;;;;;;16.62;69.56;93945.53;521223;28;821;-50
2023/09/09 00:00:54;;;;;;;2.20;2.00;;;;;;;16.61;69.86;93946.13;520726;28;824;-51
2023/09/09 00:01:09;;;;;;;2.60;2.00;;;;;;;16.62;69.71;93942.75;521942;28;1112;-50
2023/09/09 00:01:25;;;;;;;2.43;2.13;;;;;;;16.62;69.74;93945.53;521954;28;1150;-50
2023/09/09 00:01:40;;;;;;;2.33;2.13;;;;;;;16.62;69.90;93953.16;522188;28;2293;-51
2023/09/09 00:01:56;;;;;;;2.57;1.80;;;;;;;16.61;69.87;93952.41;521018;28;1273;-51
2023/09/09 00:02:11;;;;;;;3.13;2.07;;;;;;;16.61;69.73;93946.84;521802;28;1442;-50
2023/09/09 00:02:26;;;;;;;2.83;2.25;;;;;;;16.62;69.67;93948.31;520886;28;1760;-52
2023/09/09 00:02:42;;;;;;;2.50;2.20;;;;;;;16.62;69.63;93951.09;520533;28;930;-51
2023/09/09 00:02:57;;;;;;;2.33;2.13;;;;;;;16.62;69.72;93947.56;519981;28;1169;-52
2023/09/09 00:03:13;;;;;;;2.60;2.10;;;;;;;16.61;69.34;93949.63;519718;28;911;-50
2023/09/09 00:03:28;;;;;;;2.47;2.00;;;;;;;16.61;69.70;93949.63;521106;28;1550;-49
2023/09/09 00:03:43;;;;;;;2.33;2.10;;;;;;;16.62;69.69;93948.31;522315;28;1352;-53
2023/09/09 00:03:59;;;;;;;3.85;2.17;;;;;;;16.62;69.67;93947.56;521915;28;1407;-52
2023/09/09 00:04:14;;;;;;;3.53;2.13;;;;;;;16.61;69.50;93941.25;521971;28;1097;-49
2023/09/09 00:04:30;;;;;;;2.30;2.10;;;;;;;16.62;69.46;93948.31;521730;28;1138;-51
2023/09/09 00:04:45;;;;;;;2.70;2.17;;;;;;;16.61;69.40;93946.13;522201;28;1332;-50
2023/09/09 00:05:01;;;;;;;4.05;2.20;;;;;;;16.61;69.31;93944.03;521899;28;1434;-50
2023/09/09 00:05:16;;;;;;;4.33;2.07;;;;;;;16.60;69.23;93948.16;521963;28;1117;-50
2023/09/09 00:05:33;;;;;;;3.37;2.10;;;;;;;16.61;69.13;93954.47;520325;28;1795;-49
2023/09/09 00:05:51;;;;;;;2.60;2.15;;;;;;;16.60;68.92;93942.59;520071;28;974;-50
2023/09/09 00:06:08;;;;;;;2.50;1.90;;;;;;;16.61;68.77;93948.91;520060;28;942;-50
2023/09/09 00:06:24;;;;;;;2.13;1.90;;;;;;;16.56;68.93;93942.28;520292;28;1118;-50
2023/09/09 00:06:40;;;;;;;2.13;1.92;;;;;;;16.59;68.91;93946.66;522012;28;1512;-51
2023/09/09 00:07:01;;;;;;;2.15;1.95;;;;;;;16.59;68.83;93941.09;522088;28;1181;-52
2023/09/09 00:07:17;;;;;;;2.30;2.10;;;;;;;16.60;68.70;93942.59;522319;28;862;-50
2023/09/09 00:07:32;;;;;;;2.20;2.00;;;;;;;16.58;68.88;93936.84;522388;28;1304;-51
2023/09/09 00:07:47;;;;;;;2.20;2.00;;;;;;;16.58;68.83;93945.22;522312;28;897;-50
2023/09/09 00:08:03;;;;;;;2.37;2.10;;;;;;;16.58;68.91;93941.69;521177;28;1708;-50
2023/09/09 00:08:19;;;;;;;2.60;2.40;;;;;;;16.54;68.97;93939.31;521112;28;864;-50
2023/09/09 00:08:34;;;;;;;2.50;2.30;;;;;;;16.57;68.99;93946.50;520698;28;817;-50
2023/09/09 00:08:50;;;;;;;2.17;1.97;;;;;;;16.57;68.91;93940.19;520003;28;883;-51
2023/09/09 00:09:05;;;;;;;2.13;1.90;;;;;;;16.55;69.00;93949.13;521876;28;896;-49
2023/09/09 00:09:21;;;;;;;2.60;1.90;;;;;;;16.56;68.94;93949.88;521877;28;1053;-49
2023/09/09 00:09:36;;;;;;;2.45;1.98;;;;;;;16.48;69.04;93933.22;522336;28;1973;-50
2023/09/09 00:09:52;;;;;;;4.37;2.30;;;;;;;16.55;68.95;93945.59;521940;28;1257;-51
2023/09/09 00:10:07;;;;;;;6.57;2.50;;;;;;;16.55;69.12;93937.25;521820;28;1212;-49
2023/09/09 00:10:22;;;;;;;4.68;2.50;;;;;;;16.54;68.96;93944.16;521067;28;1557;-50
2023/09/09 00:10:38;;;;;;;2.70;2.40;;;;;;;16.55;68.96;93940.03;522099;28;1011;-50
2023/09/09 00:10:53;;;;;;;3.10;2.40;;;;;;;16.55;68.89;93937.25;520721;28;1715;-51
2023/09/09 00:11:09;;;;;;;3.07;2.43;;;;;;;16.55;69.00;93946.34;520040;28;844;-50
2023/09/09 00:11:24;;;;;;;3.03;2.35;;;;;;;16.54;69.01;93944.91;520400;28;1360;-52
2023/09/09 00:11:40;;;;;;;3.00;2.20;;;;;;;16.48;68.66;93930.41;522346;28;903;-50
2023/09/09 00:11:55;;;;;;;3.23;2.10;;;;;;;16.53;68.77;93935.03;520466;28;1082;-51
2023/09/09 00:12:11;;;;;;;2.50;1.98;;;;;;;16.53;68.73;93946.19;521998;28;1383;-51
2023/09/09 00:12:26;;;;;;;2.10;1.90;;;;;;;16.54;68.62;93947.69;521898;28;1403;-52
2023/09/09 00:12:41;;;;;;;2.38;2.17;;;;;;;16.54;68.80;93939.31;522311;28;841;-50
2023/09/09 00:12:57;;;;;;;3.00;2.57;;;;;;;16.54;68.69;93944.16;520560;28;813;-52
2023/09/09 00:13:12;;;;;;;2.97;2.27;;;;;;;16.52;68.77;93941.91;519946;28;791;-50
2023/09/09 00:13:28;;;;;;;2.33;1.92;;;;;;;16.52;68.74;93939.13;520803;28;1134;-51
2023/09/09 00:13:45;;;;;;;2.60;2.23;;;;;;;16.52;68.69;93944.72;522303;28;1382;-49
2023/09/09 00:14:01;;;;;;;2.60;2.40;;;;;;;16.52;68.81;93939.13;521973;28;1773;-50
2023/09/09 00:14:17;;;;;;;2.97;2.50;;;;;;;16.51;68.76;93937.69;521993;28;909;-50
2023/09/09 00:14:32;;;;;;;3.57;2.43;;;;;;;16.53;68.69;93948.25;520770;28;1759;-51
2023/09/09 00:14:47;;;;;;;3.03;2.20;;;;;;;16.52;68.38;93944.00;520467;28;883;-51
2023/09/09 00:15:05;;;;;;;2.85;2.35;;;;;;;16.51;68.54;93937.69;521573;28;1177;-50
2023/09/09 00:15:20;;;;;;;3.03;2.55;;;;;;;16.51;68.46;93943.25;521997;28;899;-51
2023/09/09 00:15:36;;;;;;;2.63;2.25;;;;;;;16.50;68.68;93941.03;520809;28;957;-50
2023/09/09 00:15:55;;;;;;;2.20;1.83;;;;;;;16.46;68.71;93938.63;521892;28;1040;-49
2023/09/09 00:16:10;;;;;;;3.53;2.20;;;;;;;16.48;68.48;93940.84;521966;28;871;-52
2023/09/09 00:16:25;;;;;;;3.40;2.40;;;;;;;16.48;68.27;93938.06;521713;28;1031;-52
2023/09/09 00:16:41;;;;;;;2.63;2.35;;;;;;;16.48;68.28;93935.28;519272;28;1492;-49
2023/09/09 00:16:57;;;;;;;2.43;2.23;;;;;;;16.47;68.40;93942.91;519925;28;867;-52
2023/09/09 00:17:12;;;;;;;2.45;2.20;;;;;;;16.46;68.31;93938.63;518333;28;1741;-51
2023/09/09 00:17:28;;;;;;;3.90;2.30;;;;;;;16.46;68.33;93941.41;519841;28;792;-50
2023/09/09 00:17:43;;;;;;;3.67;2.22;;;;;;;16.46;68.42;93947.00;520684;28;772;-53
2023/09/09 00:17:59;;;;;;;2.20;2.00;;;;;;;16.46;68.26;93940.66;521796;28;1137;-50
2023/09/09 00:18:15;;;;;;;2.05;1.85;;;;;;;16.46;68.42;93941.41;520034;28;990;-53
2023/09/09 00:18:30;;;;;;;2.90;2.10;;;;;;;16.46;68.26;93941.41;519950;28;818;-51
2023/09/09 00:18:46;;;;;;;3.60;2.40;;;;;;;16.45;68.12;93939.94;522220;28;840;-52
2023/09/09 00:19:02;;;;;;;3.83;2.17;;;;;;;16.45;68.06;93942.75;519961;28;1179;-50
2023/09/09 00:19:21;;;;;;;3.33;2.00;;;;;;;16.45;68.10;93942.75;519868;28;908;-49
2023/09/09 00:19:36;;;;;;;2.08;1.80;;;;;;;16.46;68.07;93937.88;522196;28;1126;-49
2023/09/09 00:19:51;;;;;;;1.83;1.73;;;;;;;16.45;67.97;93939.94;520374;28;1772;-53
2023/09/09 00:20:14;;;;;;;2.43;1.90;;;;;;;16.45;67.71;93933.63;520095;28;847;-49
2023/09/09 00:20:30;;;;;;;2.60;2.08;;;;;;;16.46;67.73;93943.47;521205;28;1014;-50
2023/09/09 00:20:45;;;;;;;2.30;2.10;;;;;;;16.45;67.51;93939.94;521812;28;824;-52
2023/09/09 00:21:01;;;;;;;4.53;2.20;;;;;;;16.44;67.69;93938.47;521145;28;1130;-50
2023/09/09 00:21:16;;;;;;;4.93;2.20;;;;;;;16.43;67.46;93937.00;522004;28;804;-51
2023/09/09 00:21:31;;;;;;;2.72;1.98;;;;;;;16.43;67.34;93939.78;522042;28;919;-52
2023/09/09 00:21:47;;;;;;;2.47;1.93;;;;;;;16.43;67.42;93941.84;522273;28;835;-50
2023/09/09 00:22:03;;;;;;;2.58;2.22;;;;;;;16.43;67.26;93939.78;520218;28;1006;-51
2023/09/09 00:22:18;;;;;;;2.47;2.20;;;;;;;16.43;67.04;93939.78;522061;28;855;-50
2023/09/09 00:22:33;;;;;;;2.20;2.00;;;;;;;16.44;67.22;93937.72;521551;28;1779;-49
2023/09/09 00:22:49;;;;;;;1.90;1.70;;;;;;;16.43;67.20;93944.63;520079;28;821;-51
2023/09/09 00:23:07;;;;;;;1.90;1.80;;;;;;;16.42;67.32;93943.88;521938;28;774;-51
2023/09/09 00:23:22;;;;;;;2.28;2.00;;;;;;;16.41;67.60;93942.41;521821;28;1062;-51
2023/09/09 00:23:38;;;;;;;2.57;2.00;;;;;;;16.39;67.59;93936.69;521132;28;923;-51
2023/09/09 00:23:53;;;;;;;2.13;1.90;;;;;;;16.39;67.76;93936.69;521937;28;1113;-52
2023/09/09 00:24:08;;;;;;;1.98;1.88;;;;;;;16.40;67.85;93937.41;522166;28;996;-50
2023/09/09 00:24:24;;;;;;;2.10;1.97;;;;;;;16.39;67.92;93938.72;521932;28;1335;-51
2023/09/09 00:24:39;;;;;;;3.93;2.03;;;;;;;16.38;67.84;93940.78;522077;28;852;-51
2023/09/09 00:24:55;;;;;;;5.45;2.03;;;;;;;16.38;67.92;93938.00;522117;28;843;-50
2023/09/09 00:25:10;;;;;;;3.23;1.90;;;;;;;16.37;68.01;93933.00;521966;28;934;-49
2023/09/09 00:25:26;;;;;;;2.00;1.80;;;;;;;16.37;68.06;93936.50;521928;28;1019;-50
2023/09/09 00:25:42;;;;;;;2.20;2.00;;;;;;;16.37;68.10;93933.72;522341;28;914;-51
2023/09/09 00:25:57;;;;;;;2.75;2.08;;;;;;;16.36;68.30;93935.03;522114;28;849;-50
2023/09/09 00:26:12;;;;;;;3.00;1.90;;;;;;;16.36;68.41;93934.28;522036;28;777;-52
2023/09/09 00:26:28;;;;;;;4.63;1.77;;;;;;;16.35;68.17;93930.75;521976;28;986;-51
2023/09/09 00:26:44;;;;;;;4.53;2.00;;;;;;;16.35;68.07;93932.84;521503;28;895;-50
2023/09/09 00:27:00;;;;;;;2.42;2.20;;;;;;;16.34;68.24;93932.09;521110;28;986;-51
2023/09/09 00:27:15;;;;;;;2.17;1.98;;;;;;;16.34;68.22;93932.09;519935;28;849;-50
2023/09/09 00:27:31;;;;;;;2.13;1.92;;;;;;;16.33;68.25;93930.59;519970;28;896;-50
2023/09/09 00:27:46;;;;;;;2.70;2.10;;;;;;;16.33;68.09;93932.69;520258;28;859;-50
2023/09/09 00:28:02;;;;;;;3.73;2.00;;;;;;;16.32;68.26;93931.94;520045;28;840;-51
2023/09/09 00:28:20;;;;;;;3.38;1.98;;;;;;;16.32;68.04;93929.16;519957;28;840;-52
2023/09/09 00:28:35;;;;;;;2.58;1.95;;;;;;;16.31;68.23;93924.88;522002;28;1107;-51
2023/09/09 00:28:51;;;;;;;3.27;2.10;;;;;;;16.31;68.23;93927.66;520085;28;798;-51
2023/09/09 00:29:06;;;;;;;2.72;2.05;;;;;;;16.30;68.31;93931.03;519960;28;915;-51
2023/09/09 00:29:22;;;;;;;2.10;1.90;;;;;;;16.31;68.42;93924.88;519816;28;1543;-51
2023/09/09 00:29:37;;;;;;;2.88;2.10;;;;;;;16.31;68.40;93924.13;522034;28;2134;-50
2023/09/09 00:29:52;;;;;;;2.72;2.08;;;;;;;16.31;68.27;93921.34;522031;28;1151;-51
2023/09/09 00:30:08;;;;;;;2.27;2.07;;;;;;;16.31;68.35;93936.03;521948;28;1021;-51
2023/09/09 00:30:24;;;;;;;2.05;1.90;;;;;;;16.30;68.49;93926.19;521406;28;1534;-50
2023/09/09 00:30:39;;;;;;;2.00;1.70;;;;;;;16.31;68.48;93932.50;521640;28;823;-50
2023/09/09 00:30:55;;;;;;;2.35;1.95;;;;;;;16.29;68.62;93924.72;519860;28;868;-51
2023/09/09 00:31:10;;;;;;;1.90;1.80;;;;;;;16.28;68.61;93923.25;519990;28;777;-51
2023/09/09 00:31:25;;;;;;;1.83;1.73;;;;;;;16.26;68.54;93925.88;520377;28;813;-51
2023/09/09 00:31:41;;;;;;;2.00;1.90;;;;;;;16.27;68.57;93932.16;521587;28;802;-50
2023/09/09 00:31:56;;;;;;;1.80;1.70;;;;;;;16.25;68.98;93927.19;521943;28;1139;-50
2023/09/09 00:32:12;;;;;;;4.28;1.80;;;;;;;16.26;68.77;93925.13;521981;28;1629;-52
2023/09/09 00:32:27;;;;;;;4.20;2.00;;;;;;;16.25;68.76;93924.38;522048;28;802;-51
2023/09/09 00:32:42;;;;;;;2.58;2.20;;;;;;;16.25;68.60;93926.44;522313;28;906;-51
2023/09/09 00:32:58;;;;;;;3.23;2.27;;;;;;;16.25;68.62;93921.59;521919;28;1145;-50
2023/09/09 00:33:13;;;;;;;2.58;2.03;;;;;;;16.23;68.76;93929.81;520692;28;1755;-50
2023/09/09 00:33:29;;;;;;;2.57;2.17;;;;;;;16.24;68.77;93933.34;521437;28;983;-51
2023/09/09 00:33:44;;;;;;;2.50;2.20;;;;;;;16.23;68.80;93929.06;520898;28;799;-53
2023/09/09 00:33:59;;;;;;;2.42;2.08;;;;;;;16.23;68.99;93931.84;519991;28;801;-53
2023/09/09 00:34:15;;;;;;;2.63;2.10;;;;;;;16.22;68.87;93931.09;521121;28;769;-50
2023/09/09 00:34:33;;;;;;;2.30;1.80;;;;;;;16.22;69.10;93927.59;521937;28;1066;-49
2023/09/09 00:34:48;;;;;;;2.35;2.00;;;;;;;16.21;68.91;93923.31;522088;28;828;-49
2023/09/09 00:35:04;;;;;;;2.70;2.13;;;;;;;16.21;68.93;93923.31;521960;28;1014;-49
2023/09/09 00:35:20;;;;;;;2.17;1.80;;;;;;;16.21;68.91;93934.47;521938;28;1112;-50
2023/09/09 00:35:38;;;;;;;1.70;1.60;;;;;;;16.21;68.91;93929.66;522478;28;1168;-51
2023/09/09 00:35:54;;;;;;;2.08;1.80;;;;;;;16.21;69.04;93931.69;523791;28;1121;-50
2023/09/09 00:36:09;;;;;;;2.50;1.90;;;;;;;16.21;69.12;93928.91;522030;28;1029;-50
2023/09/09 00:36:24;;;;;;;2.27;1.90;;;;;;;16.21;69.08;93926.13;521965;28;843;-50
2023/09/09 00:36:40;;;;;;;2.55;2.13;;;;;;;16.21;69.20;93931.69;522159;28;898;-48
2023/09/09 00:36:55;;;;;;;2.63;2.33;;;;;;;16.19;69.22;93923.91;522122;28;802;-50
2023/09/09 00:37:10;;;;;;;2.23;2.03;;;;;;;16.19;69.29;93929.47;521968;28;915;-49
2023/09/09 00:37:26;;;;;;;2.60;2.03;;;;;;;16.19;69.22;93926.69;520499;28;1161;-48
2023/09/09 00:37:41;;;;;;;2.85;1.92;;;;;;;16.20;69.17;93933.72;520604;28;757;-50
2023/09/09 00:37:56;;;;;;;2.20;1.90;;;;;;;16.19;69.23;93925.94;521404;28;1149;-50
2023/09/09 00:38:13;;;;;;;2.30;2.07;;;;;;;16.20;69.16;93930.22;521778;28;1375;-49
2023/09/09 00:38:28;;;;;;;2.38;1.92;;;;;;;16.18;69.16;93933.56;522065;28;885;-49
2023/09/09 00:38:43;;;;;;;2.30;2.00;;;;;;;16.19;69.40;93932.28;522265;28;883;-49
2023/09/09 00:39:00;;;;;;;2.17;1.90;;;;;;;16.20;69.28;93930.22;522020;28;1094;-49
2023/09/09 00:39:15;;;;;;;1.90;1.67;;;;;;;16.19;69.47;93925.94;522029;28;894;-50
2023/09/09 00:39:31;;;;;;;2.63;1.83;;;;;;;16.18;69.47;93927.25;521370;28;926;-48
2023/09/09 00:39:46;;;;;;;2.63;1.90;;;;;;;16.18;69.36;93925.22;523876;28;860;-50
2023/09/09 00:40:01;;;;;;;2.05;1.80;;;;;;;16.15;69.45;93926.38;521581;28;1510;-49
2023/09/09 00:40:17;;;;;;;2.40;2.00;;;;;;;16.18;69.49;93928.00;520226;28;899;-53
2023/09/09 00:40:32;;;;;;;2.63;2.10;;;;;;;16.18;69.39;93933.56;521533;28;1184;-49
2023/09/09 00:41:08;;;;;;;2.70;2.10;;;;;;;16.18;69.58;93930.03;520047;28;1021;-50
2023/09/09 00:41:23;;;;;;;2.50;2.17;;;;;;;16.16;69.31;93924.31;519556;28;1195;-50
2023/09/09 00:41:39;;;;;;;2.37;2.13;;;;;;;16.17;69.69;93926.53;521783;28;1062;-50
2023/09/09 00:41:54;;;;;;;2.20;2.00;;;;;;;16.16;69.61;93925.03;521747;28;1122;-49
2023/09/09 00:42:10;;;;;;;2.30;2.10;;;;;;;16.16;69.73;93933.41;521597;28;1364;-50
2023/09/09 00:42:25;;;;;;;2.77;2.47;;;;;;;16.17;69.70;93928.56;521867;28;953;-50
2023/09/09 00:42:40;;;;;;;3.00;2.20;;;;;;;16.16;69.69;93930.63;522354;28;1712;-50
2023/09/09 00:42:56;;;;;;;2.30;1.90;;;;;;;16.17;69.73;93925.78;520435;28;883;-50
2023/09/09 00:43:11;;;;;;;2.20;2.00;;;;;;;16.15;69.56;93923.59;521698;28;1115;-50
2023/09/09 00:43:27;;;;;;;2.35;2.13;;;;;;;16.16;69.75;93925.03;521594;28;829;-49
2023/09/09 00:43:42;;;;;;;2.20;2.00;;;;;;;16.16;69.76;93922.25;519966;28;805;-49
2023/09/09 00:43:58;;;;;;;2.53;1.83;;;;;;;16.18;69.77;93921.69;519915;28;864;-49
2023/09/09 00:44:13;;;;;;;3.33;2.23;;;;;;;16.16;69.86;93927.84;519932;28;832;-49
2023/09/09 00:44:28;;;;;;;2.43;2.20;;;;;;;16.16;69.64;93922.25;519997;28;918;-48
2023/09/09 00:44:44;;;;;;;2.08;1.98;;;;;;;16.15;69.70;93923.59;521164;28;994;-49
2023/09/09 00:44:59;;;;;;;2.30;1.90;;;;;;;16.14;69.59;93924.88;522042;28;776;-50
2023/09/09 00:45:14;;;;;;;2.43;1.77;;;;;;;16.15;69.70;93926.38;521915;28;888;-50
2023/09/09 00:45:30;;;;;;;2.75;1.90;;;;;;;16.15;69.77;93931.94;522022;28;942;-48
2023/09/09 00:45:45;;;;;;;2.40;1.90;;;;;;;16.14;69.78;93924.13;520231;28;1250;-50
2023/09/09 00:46:01;;;;;;;1.92;1.83;;;;;;;16.12;69.63;93924.72;517666;28;848;-50
2023/09/09 00:46:16;;;;;;;2.40;2.20;;;;;;;16.13;69.44;93931.78;515685;28;852;-50
2023/09/09 00:46:32;;;;;;;2.60;2.40;;;;;;;16.13;69.33;93933.81;517352;28;1031;-49
2023/09/09 00:46:47;;;;;;;2.43;2.17;;;;;;;16.11;69.33;93928.84;517836;28;781;-50
2023/09/09 00:47:03;;;;;;;2.40;1.90;;;;;;;16.12;69.33;93923.97;519713;28;1397;-50
2023/09/09 00:47:18;;;;;;;2.75;1.83;;;;;;;16.11;69.22;93933.66;521781;28;1795;-50
2023/09/09 00:47:34;;;;;;;2.87;1.70;;;;;;;16.09;69.20;93928.66;520276;28;1692;-50
2023/09/09 00:47:49;;;;;;;2.30;1.70;;;;;;;16.09;69.31;93925.16;521753;28;1098;-49
2023/09/09 00:48:05;;;;;;;2.17;1.97;;;;;;;16.07;69.23;93931.28;522528;28;985;-51
2023/09/09 00:48:20;;;;;;;2.30;2.10;;;;;;;16.07;69.18;93928.47;521825;28;792;-50
2023/09/09 00:48:36;;;;;;;1.93;1.83;;;;;;;16.05;69.25;93931.09;522653;28;1074;-50
2023/09/09 00:48:52;;;;;;;1.90;1.80;;;;;;;16.05;69.31;93931.09;523941;28;880;-50
2023/09/09 00:49:08;;;;;;;2.10;2.00;;;;;;;16.02;69.28;93923.91;523469;28;893;-49
2023/09/09 00:49:24;;;;;;;2.28;2.10;;;;;;;16.03;69.25;93930.19;519690;28;1043;-50
2023/09/09 00:49:39;;;;;;;2.43;2.03;;;;;;;16.03;69.31;93927.41;520036;28;820;-50
2023/09/09 00:49:54;;;;;;;2.35;2.10;;;;;;;16.03;69.43;93924.63;519752;28;891;-51
2023/09/09 00:50:11;;;;;;;2.07;1.87;;;;;;;16.02;69.50;93923.91;519288;28;1741;-50
2023/09/09 00:50:28;;;;;;;2.58;2.05;;;;;;;16.01;69.51;93925.22;519769;28;1085;-49
2023/09/09 00:50:43;;;;;;;2.90;2.40;;;;;;;16.01;69.51;93918.91;520706;28;880;-51
2023/09/09 00:50:59;;;;;;;2.50;2.30;;;;;;;16.02;69.65;93926.69;521798;28;1541;-49
2023/09/09 00:51:14;;;;;;;2.30;2.05;;;;;;;16.02;69.63;93918.34;520730;28;1098;-48
2023/09/09 00:51:30;;;;;;;2.30;2.10;;;;;;;16.02;69.73;93920.38;522052;28;776;-49
2023/09/09 00:51:46;;;;;;;2.20;1.90;;;;;;;15.99;69.73;93918.72;522252;28;1130;-50
2023/09/09 00:52:02;;;;;;;2.30;1.87;;;;;;;16.03;69.68;93921.84;522023;28;808;-51
2023/09/09 00:52:17;;;;;;;3.85;2.22;;;;;;;16.02;69.71;93923.16;520406;28;831;-52
2023/09/09 00:52:33;;;;;;;3.63;2.20;;;;;;;15.75;69.42;93884.09;521353;28;1103;-52
2023/09/09 00:52:48;;;;;;;2.07;1.87;;;;;;;16.03;69.60;93928.16;518566;28;1712;-50
2023/09/09 00:53:04;;;;;;;1.92;1.80;;;;;;;16.03;69.66;93921.84;518988;28;807;-50
2023/09/09 00:53:19;;;;;;;3.87;1.90;;;;;;;16.04;69.51;93920.53;518430;28;832;-51
2023/09/09 00:53:35;;;;;;;4.45;1.92;;;;;;;16.04;69.52;93918.50;518398;28;868;-50
2023/09/09 00:53:50;;;;;;;2.67;1.97;;;;;;;16.04;69.56;93923.34;516572;28;838;-50
2023/09/09 00:54:06;;;;;;;2.20;1.98;;;;;;;16.05;69.40;93922.75;517755;28;1111;-50
2023/09/09 00:54:21;;;;;;;2.20;1.80;;;;;;;16.05;69.39;93924.81;518072;28;773;-50
2023/09/09 00:54:36;;;;;;;2.40;1.97;;;;;;;16.05;69.38;93919.25;520373;28;1026;-50
2023/09/09 00:54:52;;;;;;;2.78;1.92;;;;;;;16.05;69.13;93919.97;518893;28;1076;-50
2023/09/09 00:55:10;;;;;;;2.88;1.98;;;;;;;16.06;69.26;93929.81;517820;28;796;-50
2023/09/09 00:55:27;;;;;;;2.83;2.10;;;;;;;16.05;69.27;93919.25;518438;28;835;-53
2023/09/09 00:55:43;;;;;;;2.70;1.60;;;;;;;16.05;69.12;93919.97;520140;28;886;-50
2023/09/09 00:56:00;;;;;;;2.40;1.95;;;;;;;16.06;69.20;93917.94;519749;28;868;-49
2023/09/09 00:56:15;;;;;;;2.55;2.10;;;;;;;16.05;69.03;93919.97;519777;28;895;-47
2023/09/09 00:56:33;;;;;;;2.07;1.70;;;;;;;16.05;69.00;93922.03;517315;28;1691;-47
2023/09/09 00:56:50;;;;;;;1.90;1.67;;;;;;;16.04;69.00;93924.06;517570;28;959;-48
2023/09/09 00:57:05;;;;;;;2.60;1.70;;;;;;;16.03;68.89;93919.81;517609;28;873;-47
2023/09/09 00:57:21;;;;;;;2.95;1.98;;;;;;;16.03;68.98;93921.84;517746;28;864;-49
2023/09/09 00:57:36;;;;;;;2.43;2.10;;;;;;;16.02;69.03;93915.56;518725;28;948;-48
2023/09/09 00:57:51;;;;;;;2.60;2.17;;;;;;;16.01;69.13;93919.63;519676;28;947;-48
2023/09/09 00:58:07;;;;;;;2.92;2.10;;;;;;;16.01;69.22;93916.84;519767;28;824;-48
2023/09/09 00:58:23;;;;;;;2.47;2.00;;;;;;;16.01;69.33;93918.91;517649;28;882;-50
2023/09/09 00:58:38;;;;;;;2.13;1.92;;;;;;;16.01;69.45;93924.47;518482;28;838;-48
2023/09/09 00:58:54;;;;;;;2.20;2.00;;;;;;;16.00;69.52;93915.41;518054;28;1019;-47
2023/09/09 00:59:11;;;;;;;2.38;1.90;;;;;;;16.02;69.70;93920.38;519755;28;808;-48
2023/09/09 00:59:26;;;;;;;2.20;1.92;;;;;;;16.02;69.94;93921.13;521650;28;1082;-48
2023/09/09 00:59:42;;;;;;;2.00;1.90;;;;;;;16.02;69.90;93921.13;521800;28;1681;-47
2023/09/09 00:59:57;;;;;;;2.10;1.90;;;;;;;16.02;70.09;93917.59;520424;28;1571;-49
2023/09/09 01:00:13;;;;;;;2.70;2.10;;;;;;;15.99;69.95;93922.25;519687;28;848;-49
2023/09/09 01:00:28;;;;;;;2.60;2.03;;;;;;;16.01;69.95;93922.44;519971;28;899;-49
2023/09/09 01:00:44;;;;;;;2.10;1.90;;;;;;;15.99;69.97;93919.47;521920;28;1076;-49
2023/09/09 01:01:03;;;;;;;2.08;1.85;;;;;;;16.01;69.82;93914.06;521095;28;998;-48
2023/09/09 01:01:18;;;;;;;2.40;1.90;;;;;;;15.98;69.99;93920.06;521944;28;905;-49
2023/09/09 01:01:33;;;;;;;1.80;1.67;;;;;;;15.99;69.89;93919.47;522008;28;872;-49
2023/09/09 01:01:49;;;;;;;1.80;1.70;;;;;;;15.98;69.91;93923.59;521840;28;907;-50
2023/09/09 01:02:04;;;;;;;2.30;2.10;;;;;;;15.99;69.91;93918.72;519973;28;757;-48
2023/09/09 01:02:19;;;;;;;4.65;2.25;;;;;;;15.97;70.01;93916.53;519928;28;877;-49
2023/09/09 01:02:39;;;;;;;4.70;2.10;;;;;;;15.96;70.11;93922.69;520307;28;1533;-48
2023/09/09 01:02:55;;;;;;;2.65;2.08;;;;;;;15.95;70.19;93919.16;520807;28;1698;-49
2023/09/09 01:03:10;;;;;;;2.20;1.90;;;;;;;15.94;70.16;93923.97;521204;28;851;-48
2023/09/09 01:03:25;;;;;;;2.70;2.08;;;;;;;15.95;70.26;93919.16;521893;28;859;-49
2023/09/09 01:03:41;;;;;;;3.20;2.33;;;;;;;15.96;70.27;93914.31;522033;28;1400;-49
2023/09/09 01:03:57;;;;;;;2.55;2.33;;;;;;;15.94;70.17;93921.19;521780;28;945;-49
2023/09/09 01:04:12;;;;;;;2.37;2.17;;;;;;;15.90;70.28;93904.16;521667;28;1005;-48
2023/09/09 01:04:28;;;;;;;2.38;2.00;;;;;;;15.94;70.17;93912.09;521734;28;903;-48
2023/09/09 01:04:44;;;;;;;2.27;1.90;;;;;;;15.94;70.09;93920.44;521092;28;844;-47
2023/09/09 01:04:59;;;;;;;2.03;1.73;;;;;;;15.93;70.05;93919.72;519813;28;832;-49
2023/09/09 01:05:15;;;;;;;2.08;1.85;;;;;;;15.92;70.15;93915.47;519496;28;1757;-49
2023/09/09 01:05:31;;;;;;;2.30;2.07;;;;;;;15.93;70.11;93919.00;520635;28;1325;-48
2023/09/09 01:05:46;;;;;;;2.50;1.95;;;;;;;15.92;70.25;93911.94;522111;28;985;-50
2023/09/09 01:06:02;;;;;;;2.60;1.95;;;;;;;15.69;70.38;93880.81;521735;28;1078;-48
2023/09/09 01:06:19;;;;;;;3.13;2.00;;;;;;;15.91;70.39;93908.44;519442;28;1004;-48
2023/09/09 01:06:35;;;;;;;3.20;1.95;;;;;;;15.90;70.45;93915.31;518328;28;884;-48
2023/09/09 01:06:51;;;;;;;3.30;1.95;;;;;;;15.90;70.49;93908.97;517729;28;880;-48
2023/09/09 01:07:07;;;;;;;2.47;1.98;;;;;;;15.91;70.48;93914.00;517720;28;884;-48
2023/09/09 01:07:22;;;;;;;2.30;2.10;;;;;;;15.91;70.50;93916.03;517802;28;1151;-50
2023/09/09 01:07:45;;;;;;;1.87;1.77;;;;;;;15.91;70.40;93911.22;518079;28;900;-48
2023/09/09 01:08:00;;;;;;;2.10;1.90;;;;;;;15.91;70.32;93904.91;518050;28;1782;-48
2023/09/09 01:08:28;;;;;;;2.20;2.00;;;;;;;15.91;70.37;93916.78;519712;28;891;-48
2023/09/09 01:08:44;;;;;;;2.05;1.85;;;;;;;15.89;70.45;93907.53;522008;28;929;-48
2023/09/09 01:09:04;;;;;;;2.38;2.03;;;;;;;15.91;70.42;93910.47;521683;28;1114;-49
2023/09/09 01:09:20;;;;;;;2.20;2.00;;;;;;;15.91;70.32;93913.25;521958;28;861;-48
2023/09/09 01:09:36;;;;;;;2.72;2.10;;;;;;;15.89;70.40;93913.84;522191;28;1914;-48
2023/09/09 01:09:52;;;;;;;2.50;1.90;;;;;;;15.89;70.45;93915.88;521900;28;1045;-51
2023/09/09 01:10:07;;;;;;;2.08;1.88;;;;;;;15.89;70.65;93916.63;520390;28;932;-48
2023/09/09 01:10:23;;;;;;;2.83;2.10;;;;;;;15.65;70.62;93877.69;519925;28;1158;-48
2023/09/09 01:10:39;;;;;;;3.33;1.98;;;;;;;15.87;70.86;93910.88;521277;28;1673;-49
2023/09/09 01:10:55;;;;;;;3.13;1.83;;;;;;;15.87;70.89;93910.16;519902;28;758;-47
2023/09/09 01:11:10;;;;;;;3.03;2.17;;;;;;;15.86;70.82;93905.88;521264;28;963;-47
2023/09/09 01:11:26;;;;;;;2.60;2.40;;;;;;;15.84;70.84;93905.72;522040;28;788;-47
2023/09/09 01:11:41;;;;;;;2.53;2.33;;;;;;;15.85;71.15;93907.91;521032;28;753;-48
2023/09/09 01:11:58;;;;;;;2.22;2.00;;;;;;;15.84;70.96;93912.03;520444;28;1106;-49
2023/09/09 01:12:14;;;;;;;2.70;2.00;;;;;;;15.83;70.93;93909.81;521847;28;1041;-48
2023/09/09 01:12:29;;;;;;;2.33;2.00;;;;;;;15.84;71.03;93914.06;521910;28;864;-48
2023/09/09 01:12:45;;;;;;;1.87;1.77;;;;;;;15.84;70.84;93911.28;521043;28;914;-48
2023/09/09 01:13:00;;;;;;;3.53;1.83;;;;;;;15.85;70.98;93909.97;520007;28;887;-48
2023/09/09 01:13:16;;;;;;;4.50;2.25;;;;;;;15.84;70.70;93912.03;519739;28;1662;-49
2023/09/09 01:13:31;;;;;;;3.43;2.10;;;;;;;15.84;70.58;93912.03;520712;28;947;-50
2023/09/09 01:13:46;;;;;;;2.70;1.90;;;;;;;15.84;70.67;93912.03;519219;28;912;-48
2023/09/09 01:14:02;;;;;;;2.20;2.00;;;;;;;15.84;70.68;93908.50;519705;28;1062;-48
2023/09/09 01:14:17;;;;;;;2.37;2.17;;;;;;;15.85;70.56;93912.78;519701;28;824;-49
2023/09/09 01:14:33;;;;;;;2.40;2.10;;;;;;;15.84;70.59;93911.28;519877;28;817;-50
2023/09/09 01:14:48;;;;;;;2.63;2.07;;;;;;;15.83;70.62;93915.41;519884;28;867;-49
2023/09/09 01:15:05;;;;;;;2.37;2.03;;;;;;;15.77;70.57;93903.75;518156;28;801;-49
2023/09/09 01:15:21;;;;;;;2.70;1.63;;;;;;;15.82;70.53;93905.56;518133;28;893;-52
2023/09/09 01:15:37;;;;;;;2.83;1.90;;;;;;;15.81;70.61;93904.81;521867;28;1026;-49
2023/09/09 01:15:53;;;;;;;2.55;2.10;;;;;;;15.73;70.62;93898.59;521761;28;809;-48
2023/09/09 01:16:09;;;;;;;2.30;1.90;;;;;;;15.81;70.54;93909.63;521806;28;812;-48
2023/09/09 01:16:24;;;;;;;2.23;2.03;;;;;;;15.81;70.60;93904.06;521694;28;1075;-48
2023/09/09 01:16:41;;;;;;;2.10;1.90;;;;;;;15.82;70.46;93911.13;522118;28;899;-49
2023/09/09 01:16:57;;;;;;;1.90;1.80;;;;;;;15.81;70.41;93906.84;519817;28;788;-49
2023/09/09 01:17:12;;;;;;;2.33;2.00;;;;;;;15.80;70.14;93903.34;519588;28;1038;-48